Time;durP1;ratioP1;P1;durP2;ratioP2;P2;SDS_P1;SDS_P2;PMS_P1;PMS_P2;Temp;Humidity;BMP_temperature;BMP_pressure;BME280_temperature;BME280_humidity;BME280_pressure;Samples;Min_cycle;Max_cycle;Signal;HPM_P1;HPM_P2
2022/08/14 00:02:14;;;;;;;17.62;8.52;;;;;;;;;;4403429;32;20248;-84
2022/08/14 00:04:40;;;;;;;10.20;8.65;;;;;;;;;;4403502;32;20206;-85
2022/08/14 00:07:06;;;;;;;9.88;7.45;;;;;;;;;;4403299;32;20344;-83
2022/08/14 00:09:31;;;;;;;12.82;8.02;;;;;;;;;;4403551;32;20673;-86
2022/08/14 00:11:57;;;;;;;10.85;7.68;;;;;;;;;;4403311;32;20237;-82
2022/08/14 00:14:24;;;;;;;9.65;7.55;;;;;;;;;;4402620;32;20269;-81
2022/08/14 00:16:51;;;;;;;14.02;8.75;;;;;;;;;;4402396;32;20225;-85
2022/08/14 00:19:17;;;;;;;14.70;7.90;;;;;;;;;;4403421;32;20335;-86
2022/08/14 00:21:43;;;;;;;14.95;8.25;;;;;;;;;;4403097;32;20237;-82
2022/08/14 00:24:08;;;;;;;14.23;8.07;;;;;;;;;;4403162;32;20294;-81
2022/08/14 00:26:34;;;;;;;11.32;8.50;;;;;;;;;;4403089;32;20626;-85
2022/08/14 00:29:00;;;;;;;9.07;7.62;;;;;;;;;;4401868;32;20256;-86
2022/08/14 00:31:26;;;;;;;9.55;7.93;;;;;;;;;;4402060;32;20222;-84
2022/08/14 00:33:52;;;;;;;19.30;7.75;;;;;;;;;;4403003;32;20241;-81
2022/08/14 00:36:22;;;;;;;8.10;7.20;;;;;;;;;;4402887;32;20243;-83
2022/08/14 00:38:49;;;;;;;9.95;8.35;;;;;;;;;;4402918;32;20226;-83
2022/08/14 00:41:16;;;;;;;10.93;8.38;;;;;;;;;;4402796;32;20205;-81
2022/08/14 00:43:44;;;;;;;12.15;8.43;;;;;;;;;;4402542;32;20283;-82
2022/08/14 00:46:10;;;;;;;12.25;7.75;;;;;;;;;;4403496;32;20201;-82
2022/08/14 00:48:36;;;;;;;13.55;8.73;;;;;;;;;;4403128;32;20248;-87
2022/08/14 00:51:04;;;;;;;15.85;8.07;;;;;;;;;;4403144;32;20505;-84
2022/08/14 00:53:30;;;;;;;10.23;8.32;;;;;;;;;;4402221;32;20282;-84
2022/08/14 00:55:56;;;;;;;13.82;8.02;;;;;;;;;;4402384;32;20228;-82
2022/08/14 00:58:31;;;;;;;7.93;7.12;;;;;;;;;;4401858;32;20217;-82
2022/08/14 01:01:06;;;;;;;9.07;7.75;;;;;;;;;;4402728;32;20210;-84
2022/08/14 01:03:38;;;;;;;13.13;8.60;;;;;;;;;;4402634;32;20228;-82
2022/08/14 01:06:07;;;;;;;9.73;8.20;;;;;;;;;;4401533;32;20244;-86
2022/08/14 01:08:33;;;;;;;14.07;8.60;;;;;;;;;;4402386;32;20236;-83
2022/08/14 01:10:59;;;;;;;21.90;8.80;;;;;;;;;;4402851;32;20287;-82
2022/08/14 01:13:31;;;;;;;9.40;8.50;;;;;;;;;;4402340;32;20241;-84
2022/08/14 01:16:00;;;;;;;10.82;8.68;;;;;;;;;;4403091;32;20751;-82
2022/08/14 01:21:17;;;;;;;26.65;11.30;;;;;;;;;;4402570;32;20563;-83
2022/08/14 01:23:46;;;;;;;22.58;10.98;;;;;;;;;;4402517;32;20284;-84
2022/08/14 01:26:14;;;;;;;21.62;11.30;;;;;;;;;;4401388;32;20328;-84
2022/08/14 01:28:41;;;;;;;13.98;10.50;;;;;;;;;;4402517;32;20662;-84
2022/08/14 01:31:16;;;;;;;19.87;10.02;;;;;;;;;;4402780;32;20308;-86
2022/08/14 01:33:46;;;;;;;16.48;10.65;;;;;;;;;;4401663;32;20511;-82
2022/08/14 01:36:15;;;;;;;26.67;9.52;;;;;;;;;;4402659;32;20197;-84
2022/08/14 01:38:42;;;;;;;16.92;9.93;;;;;;;;;;4402626;32;20574;-84
2022/08/14 01:41:12;;;;;;;17.08;9.73;;;;;;;;;;4402791;32;20312;-82
2022/08/14 01:44:14;;;;;;;18.25;10.50;;;;;;;;;;4402229;32;20217;-83
2022/08/14 01:46:43;;;;;;;12.65;10.27;;;;;;;;;;4377657;32;20248;-81
2022/08/14 01:49:14;;;;;;;11.95;9.52;;;;;;;;;;4388628;32;20252;-81
2022/08/14 01:51:40;;;;;;;11.18;9.32;;;;;;;;;;4402400;32;20281;-82
2022/08/14 01:54:09;;;;;;;14.57;8.82;;;;;;;;;;4401479;32;20222;-86
2022/08/14 01:56:38;;;;;;;15.52;10.23;;;;;;;;;;4401987;32;20241;-85
2022/08/14 01:59:16;;;;;;;10.88;9.23;;;;;;;;;;4400409;32;20221;-82
2022/08/14 02:01:42;;;;;;;14.55;8.73;;;;;;;;;;4402005;32;20535;-83
2022/08/14 02:04:08;;;;;;;13.43;9.23;;;;;;;;;;4401734;32;20234;-82
2022/08/14 02:06:36;;;;;;;14.43;8.73;;;;;;;;;;4401682;32;20263;-83
2022/08/14 02:09:06;;;;;;;16.80;8.88;;;;;;;;;;4400406;32;20234;-82
2022/08/14 02:11:34;;;;;;;9.57;8.63;;;;;;;;;;4402115;32;20272;-82
2022/08/14 02:14:08;;;;;;;15.13;9.20;;;;;;;;;;4401460;32;20225;-84
2022/08/14 02:16:38;;;;;;;13.27;8.63;;;;;;;;;;4401908;32;20197;-84
2022/08/14 02:19:13;;;;;;;9.77;8.25;;;;;;;;;;4401774;32;20708;-84
2022/08/14 02:21:40;;;;;;;11.70;8.93;;;;;;;;;;4401723;32;20270;-81
2022/08/14 02:24:06;;;;;;;10.10;8.98;;;;;;;;;;4401788;32;20245;-82
2022/08/14 02:26:34;;;;;;;18.58;8.68;;;;;;;;;;4401831;32;20228;-81
2022/08/14 02:29:13;;;;;;;16.62;9.48;;;;;;;;;;4401716;32;20233;-86
2022/08/14 02:31:42;;;;;;;13.88;9.30;;;;;;;;;;4402585;32;20190;-84
2022/08/14 02:34:09;;;;;;;11.70;8.68;;;;;;;;;;4402252;32;20218;-83
2022/08/14 02:36:39;;;;;;;20.65;10.43;;;;;;;;;;4402439;32;20664;-80
2022/08/14 02:39:07;;;;;;;22.40;9.95;;;;;;;;;;4403346;32;20247;-84
2022/08/14 02:41:34;;;;;;;12.45;9.98;;;;;;;;;;4402803;32;20665;-84
2022/08/14 02:44:03;;;;;;;16.27;10.77;;;;;;;;;;4402686;32;20225;-83
2022/08/14 02:46:32;;;;;;;11.02;9.20;;;;;;;;;;4402288;32;20235;-84
2022/08/14 02:48:59;;;;;;;15.40;9.10;;;;;;;;;;4401727;32;20221;-83
2022/08/14 02:51:28;;;;;;;14.23;9.27;;;;;;;;;;4401306;32;20683;-81
2022/08/14 02:53:57;;;;;;;11.38;9.38;;;;;;;;;;4401138;32;20222;-82
2022/08/14 02:56:26;;;;;;;13.13;9.05;;;;;;;;;;4400380;32;20225;-84
2022/08/14 02:58:52;;;;;;;17.52;9.55;;;;;;;;;;4401022;32;20780;-83
2022/08/14 03:01:20;;;;;;;15.88;9.65;;;;;;;;;;4400672;32;20684;-85
2022/08/14 03:03:47;;;;;;;11.82;9.18;;;;;;;;;;4401722;32;20225;-82
2022/08/14 03:06:14;;;;;;;11.35;8.63;;;;;;;;;;4401841;32;20220;-84
2022/08/14 03:08:41;;;;;;;13.05;9.05;;;;;;;;;;4401547;32;20214;-85
2022/08/14 03:11:11;;;;;;;14.57;9.40;;;;;;;;;;4401330;32;20689;-83
2022/08/14 03:13:41;;;;;;;10.60;9.32;;;;;;;;;;4401046;32;20316;-81
2022/08/14 03:16:13;;;;;;;9.15;8.18;;;;;;;;;;4401708;32;20283;-81
2022/08/14 03:18:43;;;;;;;10.75;7.50;;;;;;;;;;4401287;32;20218;-83
2022/08/14 03:21:15;;;;;;;10.35;9.07;;;;;;;;;;4401414;32;20591;-84
2022/08/14 03:23:43;;;;;;;9.43;8.40;;;;;;;;;;4401288;32;20278;-82
2022/08/14 03:26:13;;;;;;;11.50;9.30;;;;;;;;;;4401531;32;20213;-84
2022/08/14 03:28:41;;;;;;;15.10;8.10;;;;;;;;;;4386114;32;20372;-84
2022/08/14 03:31:08;;;;;;;13.95;8.63;;;;;;;;;;4386832;32;20317;-86
2022/08/14 03:33:39;;;;;;;13.00;7.97;;;;;;;;;;4386949;32;20739;-82
2022/08/14 03:36:13;;;;;;;8.82;7.50;;;;;;;;;;4384842;32;20217;-84
2022/08/14 03:38:41;;;;;;;15.20;9.07;;;;;;;;;;4385852;32;20226;-82
2022/08/14 03:41:15;;;;;;;13.10;8.18;;;;;;;;;;4385886;32;20376;-85
2022/08/14 03:43:45;;;;;;;15.48;8.60;;;;;;;;;;4385741;32;20217;-87
2022/08/14 03:46:12;;;;;;;11.38;8.35;;;;;;;;;;4394055;32;20213;-83
2022/08/14 03:48:39;;;;;;;13.85;7.85;;;;;;;;;;4401731;32;20492;-84
2022/08/14 03:51:07;;;;;;;12.27;7.15;;;;;;;;;;4401614;32;20222;-83
2022/08/14 03:53:37;;;;;;;13.40;6.97;;;;;;;;;;4400982;32;20233;-86
2022/08/14 03:56:04;;;;;;;7.95;6.90;;;;;;;;;;4401216;32;20766;-86
2022/08/14 03:58:31;;;;;;;8.68;7.10;;;;;;;;;;4401238;32;20270;-84
2022/08/14 04:00:57;;;;;;;8.73;7.15;;;;;;;;;;4401671;32;20335;-81
2022/08/14 04:03:23;;;;;;;10.82;6.60;;;;;;;;;;4400549;32;20586;-85
2022/08/14 04:05:49;;;;;;;9.73;7.28;;;;;;;;;;4401599;32;20241;-84
2022/08/14 04:08:16;;;;;;;9.57;7.47;;;;;;;;;;4400495;32;20369;-83
2022/08/14 04:10:41;;;;;;;10.18;7.18;;;;;;;;;;4401280;32;20226;-85
2022/08/14 04:13:07;;;;;;;10.63;7.45;;;;;;;;;;4401610;32;20295;-84
2022/08/14 04:15:33;;;;;;;9.10;7.32;;;;;;;;;;4401870;32;20225;-85
2022/08/14 04:18:05;;;;;;;9.40;7.18;;;;;;;;;;4403429;32;20221;-85
2022/08/14 04:20:30;;;;;;;10.52;7.05;;;;;;;;;;4404386;32;20779;-84
2022/08/14 04:22:56;;;;;;;7.60;6.28;;;;;;;;;;4404874;32;20284;-86
2022/08/14 04:25:23;;;;;;;9.93;6.82;;;;;;;;;;4404827;32;20543;-83
2022/08/14 04:27:49;;;;;;;7.10;5.95;;;;;;;;;;4404496;32;20250;-87
2022/08/14 04:30:16;;;;;;;8.80;7.12;;;;;;;;;;4404815;32;20664;-85
2022/08/14 04:32:41;;;;;;;11.07;6.35;;;;;;;;;;4403680;32;20575;-84
2022/08/14 04:35:09;;;;;;;7.47;6.62;;;;;;;;;;4404693;32;20201;-82
2022/08/14 04:45:48;;;;;;;10.02;7.37;;;;;;;;;;4404546;32;20733;-84
2022/08/14 04:48:15;;;;;;;8.80;7.03;;;;;;;;;;4404669;32;20202;-83
2022/08/14 04:50:51;;;;;;;11.07;7.50;;;;;;;;;;4404314;32;20316;-82
2022/08/14 04:53:19;;;;;;;10.73;6.57;;;;;;;;;;4404295;32;20284;-83
2022/08/14 04:55:47;;;;;;;8.52;6.55;;;;;;;;;;4404047;32;20658;-85
2022/08/14 04:58:23;;;;;;;8.50;6.93;;;;;;;;;;4401214;32;20222;-84
2022/08/14 05:00:50;;;;;;;11.65;8.43;;;;;;;;;;4403576;32;20293;-82
2022/08/14 05:03:20;;;;;;;8.63;7.43;;;;;;;;;;4404611;32;20250;-85
2022/08/14 05:05:52;;;;;;;9.43;7.10;;;;;;;;;;4403601;32;20860;-85
2022/08/14 05:08:17;;;;;;;11.63;6.65;;;;;;;;;;4403227;32;20236;-85
2022/08/14 05:10:53;;;;;;;9.63;6.82;;;;;;;;;;4403280;32;20546;-84
2022/08/14 05:13:21;;;;;;;9.35;6.20;;;;;;;;;;4403629;32;20213;-86
2022/08/14 05:15:49;;;;;;;7.05;6.35;;;;;;;;;;4403327;32;20630;-88
2022/08/14 05:18:24;;;;;;;7.32;6.62;;;;;;;;;;4402894;32;20242;-86
2022/08/14 05:20:53;;;;;;;7.43;6.68;;;;;;;;;;4402731;32;20291;-89
2022/08/14 05:23:23;;;;;;;11.18;6.45;;;;;;;;;;4406451;32;20209;-93
2022/08/14 05:25:53;;;;;;;5.65;4.95;;;;;;;;;;4403614;32;20237;-92
2022/08/14 05:28:21;;;;;;;6.30;5.70;;;;;;;;;;4403213;32;20202;-91
2022/08/14 05:30:50;;;;;;;5.82;5.28;;;;;;;;;;4401840;32;20416;-89
2022/08/14 05:33:17;;;;;;;6.93;5.50;;;;;;;;;;4402966;32;20340;-89
2022/08/14 05:35:44;;;;;;;8.98;5.35;;;;;;;;;;4403010;32;20312;-91
2022/08/14 05:38:18;;;;;;;5.97;5.37;;;;;;;;;;4403331;32;20799;-90
2022/08/14 05:40:48;;;;;;;5.85;5.30;;;;;;;;;;4400493;32;20252;-81
2022/08/14 05:43:14;;;;;;;7.55;5.75;;;;;;;;;;4400691;32;20706;-82
2022/08/14 05:45:42;;;;;;;6.18;5.57;;;;;;;;;;4401437;32;20256;-84
2022/08/14 05:48:12;;;;;;;6.60;5.60;;;;;;;;;;4401856;32;20289;-84
2022/08/14 05:50:39;;;;;;;8.77;5.80;;;;;;;;;;4402235;32;20264;-82
2022/08/14 05:53:04;;;;;;;8.02;6.40;;;;;;;;;;4401906;32;20210;-83
2022/08/14 05:55:30;;;;;;;6.95;5.45;;;;;;;;;;4401781;32;20209;-82
2022/08/14 05:57:59;;;;;;;10.45;5.93;;;;;;;;;;4399777;32;20221;-85
2022/08/14 06:00:28;;;;;;;6.57;5.43;;;;;;;;;;4401724;32;20217;-84
2022/08/14 06:02:58;;;;;;;8.23;5.20;;;;;;;;;;4401704;32;20210;-81
2022/08/14 06:05:24;;;;;;;6.82;5.90;;;;;;;;;;4401981;32;20247;-84
2022/08/14 06:07:50;;;;;;;11.38;6.07;;;;;;;;;;4400076;32;20588;-85
2022/08/14 06:10:16;;;;;;;11.48;6.80;;;;;;;;;;4387404;32;20594;-85
2022/08/14 06:12:42;;;;;;;13.80;5.55;;;;;;;;;;4400000;32;20234;-87
2022/08/14 06:15:08;;;;;;;8.23;6.00;;;;;;;;;;4401439;32;20285;-83
2022/08/14 06:17:48;;;;;;;6.72;4.53;;;;;;;;;;4401284;32;20282;-84
2022/08/14 06:20:15;;;;;;;9.80;5.22;;;;;;;;;;4401274;32;20656;-84
2022/08/14 06:22:41;;;;;;;8.25;4.78;;;;;;;;;;4401402;32;20236;-83
2022/08/14 06:25:08;;;;;;;4.93;4.50;;;;;;;;;;4401148;32;20338;-83
2022/08/14 06:27:38;;;;;;;8.18;5.40;;;;;;;;;;4401004;32;20330;-83
2022/08/14 06:30:09;;;;;;;8.57;5.43;;;;;;;;;;4401488;32;20266;-85
2022/08/14 06:32:35;;;;;;;5.57;4.90;;;;;;;;;;4400205;32;20279;-85
2022/08/14 06:35:04;;;;;;;5.28;4.47;;;;;;;;;;4401090;32;20201;-85
2022/08/14 06:37:40;;;;;;;5.30;4.80;;;;;;;;;;4400060;32;20349;-85
2022/08/14 06:40:08;;;;;;;4.50;4.00;;;;;;;;;;4400990;32;20220;-84
2022/08/14 06:42:33;;;;;;;6.35;3.67;;;;;;;;;;4400891;32;20241;-82
2022/08/14 06:45:00;;;;;;;12.48;3.70;;;;;;;;;;4401177;32;20852;-85
2022/08/14 06:47:25;;;;;;;4.93;4.40;;;;;;;;;;4401411;32;20545;-85
2022/08/14 06:49:51;;;;;;;5.12;4.62;;;;;;;;;;4400874;32;20271;-82
2022/08/14 06:52:16;;;;;;;6.28;4.25;;;;;;;;;;4400026;32;20297;-85
2022/08/14 06:54:42;;;;;;;5.20;4.55;;;;;;;;;;4400770;32;20221;-83
2022/08/14 06:57:09;;;;;;;11.23;5.53;;;;;;;;;;4400494;32;20298;-87
2022/08/14 06:59:35;;;;;;;4.32;3.92;;;;;;;;;;4401079;32;20198;-83
2022/08/14 07:07:36;;;;;;;5.12;4.60;;;;;;;;;;4390154;32;20240;-85
2022/08/14 07:10:03;;;;;;;5.20;4.70;;;;;;;;;;4396891;32;20217;-85
2022/08/14 07:12:29;;;;;;;4.87;4.30;;;;;;;;;;4400019;32;20285;-84
2022/08/14 07:14:54;;;;;;;6.65;4.62;;;;;;;;;;4400982;32;20224;-85
2022/08/14 07:17:20;;;;;;;6.30;4.97;;;;;;;;;;4400638;32;20888;-82
2022/08/14 07:19:45;;;;;;;6.50;5.22;;;;;;;;;;4401070;32;20202;-88
2022/08/14 07:22:11;;;;;;;6.37;4.65;;;;;;;;;;4400704;32;20221;-87
2022/08/14 07:24:37;;;;;;;6.30;5.15;;;;;;;;;;4400866;32;20314;-84
2022/08/14 07:27:03;;;;;;;5.30;4.50;;;;;;;;;;4400580;32;20323;-85
2022/08/14 07:29:28;;;;;;;5.68;3.92;;;;;;;;;;4400736;32;20234;-82
2022/08/14 07:31:54;;;;;;;5.57;3.95;;;;;;;;;;4399874;32;20323;-85
2022/08/14 07:34:19;;;;;;;5.65;4.18;;;;;;;;;;4405677;32;20229;-84
2022/08/14 07:36:45;;;;;;;4.85;4.10;;;;;;;;;;4410498;32;20338;-79
2022/08/14 07:39:10;;;;;;;5.85;3.80;;;;;;;;;;4411972;32;20230;-83
2022/08/14 07:41:36;;;;;;;8.50;4.30;;;;;;;;;;4413522;32;20255;-82
2022/08/14 07:44:02;;;;;;;4.15;3.60;;;;;;;;;;4413682;32;20217;-84
2022/08/14 07:46:28;;;;;;;3.35;3.05;;;;;;;;;;4399761;32;20245;-82
2022/08/14 07:48:55;;;;;;;2.95;2.55;;;;;;;;;;4400847;32;20226;-84
2022/08/14 07:51:21;;;;;;;3.72;3.10;;;;;;;;;;4400631;32;20253;-84
2022/08/14 07:53:47;;;;;;;4.53;3.40;;;;;;;;;;4401380;32;20334;-82
2022/08/14 07:56:12;;;;;;;5.00;3.55;;;;;;;;;;4403253;32;20712;-87
2022/08/14 07:58:38;;;;;;;3.78;3.22;;;;;;;;;;4402345;32;20252;-85
2022/08/14 08:01:05;;;;;;;3.90;3.33;;;;;;;;;;4402479;32;20237;-86
2022/08/14 08:03:37;;;;;;;4.82;3.92;;;;;;;;;;4403990;32;20559;-87
2022/08/14 08:06:02;;;;;;;4.25;3.15;;;;;;;;;;4402363;32;20241;-88
2022/08/14 08:08:31;;;;;;;4.10;3.40;;;;;;;;;;4404050;32;20635;-86
2022/08/14 08:10:57;;;;;;;6.65;4.22;;;;;;;;;;4401723;32;20289;-86
2022/08/14 08:13:23;;;;;;;5.07;3.92;;;;;;;;;;4403193;32;20225;-86
2022/08/14 08:15:55;;;;;;;5.43;4.03;;;;;;;;;;4403124;32;20741;-88
2022/08/14 08:18:21;;;;;;;4.57;3.65;;;;;;;;;;4403880;32;20264;-88
2022/08/14 08:20:49;;;;;;;4.22;3.65;;;;;;;;;;4403593;32;20340;-86
2022/08/14 08:23:17;;;;;;;3.75;3.45;;;;;;;;;;4403292;32;20223;-88
2022/08/14 08:25:46;;;;;;;5.62;4.20;;;;;;;;;;4402918;32;20279;-87
2022/08/14 08:28:20;;;;;;;8.65;3.55;;;;;;;;;;4403176;32;20523;-86
2022/08/14 08:30:48;;;;;;;4.03;3.37;;;;;;;;;;4403185;32;20221;-85
2022/08/14 08:33:15;;;;;;;3.85;3.55;;;;;;;;;;4403596;32;20245;-85
2022/08/14 08:35:42;;;;;;;4.28;3.62;;;;;;;;;;4401698;32;20707;-86
2022/08/14 08:38:10;;;;;;;3.50;3.08;;;;;;;;;;4403406;32;20740;-85
2022/08/14 08:40:45;;;;;;;4.10;3.50;;;;;;;;;;4402674;32;20272;-85
2022/08/14 08:43:20;;;;;;;5.20;3.42;;;;;;;;;;4403441;32;20686;-88
2022/08/14 08:46:03;;;;;;;6.30;4.40;;;;;;;;;;4403312;32;20397;-87
2022/08/14 08:48:42;;;;;;;5.55;3.62;;;;;;;;;;4403569;32;20190;-86
2022/08/14 08:51:09;;;;;;;4.65;3.37;;;;;;;;;;4403174;32;20214;-86
2022/08/14 08:53:35;;;;;;;3.47;2.85;;;;;;;;;;4403162;32;20240;-85
2022/08/14 08:56:02;;;;;;;3.67;2.97;;;;;;;;;;4402429;32;20229;-86
2022/08/14 08:58:29;;;;;;;4.32;3.72;;;;;;;;;;4403527;32;20303;-86
2022/08/14 09:00:57;;;;;;;7.45;3.05;;;;;;;;;;4402463;32;20590;-85
2022/08/14 09:03:25;;;;;;;2.97;2.60;;;;;;;;;;4402919;32;20197;-87
2022/08/14 09:05:52;;;;;;;4.05;3.35;;;;;;;;;;4403792;32;20666;-91
2022/08/14 09:08:24;;;;;;;4.22;3.20;;;;;;;;;;4390400;32;20332;-86
2022/08/14 09:10:50;;;;;;;4.95;3.58;;;;;;;;;;4387828;32;20233;-89
2022/08/14 09:13:18;;;;;;;4.87;3.10;;;;;;;;;;4396236;32;20213;-85
2022/08/14 09:15:48;;;;;;;5.57;3.67;;;;;;;;;;4402553;32;20578;-85
2022/08/14 09:18:16;;;;;;;4.47;3.95;;;;;;;;;;4403507;32;20707;-86
2022/08/14 09:20:44;;;;;;;4.93;4.12;;;;;;;;;;4401715;32;20277;-86
2022/08/14 09:23:12;;;;;;;3.90;3.50;;;;;;;;;;4403130;32;20542;-86
2022/08/14 09:25:43;;;;;;;3.40;3.05;;;;;;;;;;4402894;32;20753;-86
2022/08/14 09:28:10;;;;;;;4.18;3.40;;;;;;;;;;4403650;32;20216;-89
2022/08/14 09:30:39;;;;;;;4.72;4.00;;;;;;;;;;4402422;32;20363;-87
2022/08/14 09:33:26;;;;;;;3.72;3.33;;;;;;;;;;4401707;32;20225;-86
2022/08/14 09:36:29;;;;;;;4.07;3.25;;;;;;;;;;4402629;32;20260;-84
2022/08/14 09:39:06;;;;;;;4.05;3.20;;;;;;;;;;4403500;32;20228;-85
2022/08/14 09:41:51;;;;;;;4.28;3.53;;;;;;;;;;4403475;32;20225;-87
2022/08/14 09:44:53;;;;;;;4.82;2.78;;;;;;;;;;4402945;32;20239;-88
2022/08/14 09:47:20;;;;;;;4.68;3.80;;;;;;;;;;4402974;32;20275;-88
2022/08/14 09:49:48;;;;;;;4.37;3.58;;;;;;;;;;4403122;32;20201;-88
2022/08/14 09:52:16;;;;;;;3.65;3.15;;;;;;;;;;4403140;32;20222;-90
2022/08/14 09:54:45;;;;;;;3.83;2.90;;;;;;;;;;4403317;32;20225;-85
2022/08/14 09:57:23;;;;;;;3.35;2.83;;;;;;;;;;4403092;32;20263;-85
2022/08/14 09:59:49;;;;;;;4.28;3.15;;;;;;;;;;4403310;32;20202;-89
2022/08/14 10:02:22;;;;;;;4.20;3.22;;;;;;;;;;4403321;32;20226;-87
2022/08/14 10:05:06;;;;;;;6.40;3.30;;;;;;;;;;4402113;32;20332;-94
2022/08/14 10:07:35;;;;;;;3.00;2.80;;;;;;;;;;4394301;32;20234;-80
2022/08/14 10:10:02;;;;;;;3.60;3.28;;;;;;;;;;4387330;32;20284;-85
2022/08/14 10:12:44;;;;;;;4.07;3.25;;;;;;;;;;4390989;32;20320;-85
2022/08/14 10:15:18;;;;;;;2.67;2.45;;;;;;;;;;4401868;32;20205;-85
2022/08/14 10:17:45;;;;;;;2.58;2.37;;;;;;;;;;4386559;32;20320;-84
2022/08/14 10:20:12;;;;;;;4.18;3.15;;;;;;;;;;4387248;32;20202;-85
2022/08/14 10:22:37;;;;;;;3.67;3.25;;;;;;;;;;4402032;32;20229;-86
2022/08/14 10:25:13;;;;;;;3.42;2.95;;;;;;;;;;4402211;32;20255;-85
2022/08/14 10:27:39;;;;;;;5.72;3.37;;;;;;;;;;4401196;32;20339;-84
2022/08/14 10:30:14;;;;;;;4.28;3.33;;;;;;;;;;4402826;32;20542;-85
2022/08/14 10:32:44;;;;;;;4.30;2.87;;;;;;;;;;4402563;32;20268;-85
2022/08/14 10:35:11;;;;;;;3.85;3.17;;;;;;;;;;4401984;32;20322;-87
2022/08/14 10:37:45;;;;;;;4.75;3.42;;;;;;;;;;4401964;32;20308;-83
2022/08/14 10:40:14;;;;;;;3.97;3.15;;;;;;;;;;4401969;32;20650;-86
2022/08/14 10:42:42;;;;;;;3.05;2.65;;;;;;;;;;4402287;32;20253;-82
2022/08/14 10:45:32;;;;;;;5.55;3.62;;;;;;;;;;4400785;32;20403;-83
2022/08/14 10:47:58;;;;;;;5.25;2.45;;;;;;;;;;4402574;32;20427;-84
2022/08/14 10:50:32;;;;;;;5.78;2.60;;;;;;;;;;4402826;32;20202;-83
2022/08/14 10:53:04;;;;;;;3.10;2.80;;;;;;;;;;4402185;32;20252;-87
2022/08/14 10:55:40;;;;;;;3.60;3.05;;;;;;;;;;4402214;32;20580;-82
2022/08/14 10:58:11;;;;;;;4.28;3.33;;;;;;;;;;4404088;32;20221;-82
2022/08/14 11:00:41;;;;;;;3.15;2.85;;;;;;;;;;4403403;32;20237;-82
2022/08/14 11:03:09;;;;;;;3.33;2.53;;;;;;;;;;4404008;32;20278;-82
2022/08/14 11:05:47;;;;;;;7.12;2.92;;;;;;;;;;4402010;32;20255;-82
2022/08/14 11:08:14;;;;;;;3.42;3.10;;;;;;;;;;4397859;32;20255;-84
2022/08/14 11:10:47;;;;;;;3.70;3.08;;;;;;;;;;4391358;32;20702;-85
2022/08/14 11:13:20;;;;;;;3.72;3.00;;;;;;;;;;4398972;32;20238;-85
2022/08/14 11:15:47;;;;;;;2.70;2.50;;;;;;;;;;4401397;32;20255;-90
2022/08/14 11:18:14;;;;;;;5.82;2.87;;;;;;;;;;4400064;32;20289;-92
2022/08/14 11:20:47;;;;;;;2.90;2.60;;;;;;;;;;4400045;32;20779;-91
2022/08/14 11:23:14;;;;;;;4.28;2.53;;;;;;;;;;4400885;32;20659;-91
2022/08/14 11:25:48;;;;;;;3.25;2.95;;;;;;;;;;4401923;32;20223;-90
2022/08/14 11:28:14;;;;;;;3.10;2.80;;;;;;;;;;4403151;32;20674;-91
2022/08/14 11:30:43;;;;;;;4.05;2.70;;;;;;;;;;4405054;32;20262;-90
2022/08/14 11:33:09;;;;;;;3.22;2.80;;;;;;;;;;4404639;32;20328;-91
2022/08/14 11:35:38;;;;;;;2.95;2.55;;;;;;;;;;4405045;32;20216;-90
2022/08/14 11:38:06;;;;;;;3.17;2.47;;;;;;;;;;4404117;32;20605;-91
2022/08/14 11:40:38;;;;;;;3.17;2.60;;;;;;;;;;4404237;32;20286;-90
2022/08/14 11:43:06;;;;;;;2.60;2.40;;;;;;;;;;4404024;32;20233;-90
2022/08/14 11:45:34;;;;;;;2.37;2.08;;;;;;;;;;4403932;32;20318;-89
2022/08/14 11:48:12;;;;;;;2.45;2.20;;;;;;;;;;4403926;32;20225;-89
2022/08/14 11:50:38;;;;;;;3.28;2.25;;;;;;;;;;4404203;32;20273;-90
2022/08/14 11:53:05;;;;;;;2.85;2.30;;;;;;;;;;4403862;32;20648;-90
2022/08/14 11:55:36;;;;;;;2.95;2.42;;;;;;;;;;4389945;32;20278;-88
2022/08/14 11:58:08;;;;;;;4.03;3.10;;;;;;;;;;4404116;32;20594;-90
2022/08/14 12:00:45;;;;;;;3.37;2.35;;;;;;;;;;4403914;32;20223;-89
2022/08/14 12:03:10;;;;;;;2.90;2.60;;;;;;;;;;4404404;32;20255;-89
2022/08/14 12:05:38;;;;;;;3.10;2.40;;;;;;;;;;4402603;32;20324;-88
2022/08/14 12:08:06;;;;;;;2.45;2.03;;;;;;;;;;4402562;32;20690;-90
2022/08/14 12:10:33;;;;;;;6.32;2.45;;;;;;;;;;4402171;32;20285;-91
2022/08/14 12:13:19;;;;;;;3.20;2.08;;;;;;;;;;4402759;32;20279;-90
2022/08/14 12:15:55;;;;;;;3.22;2.25;;;;;;;;;;4402877;32;20225;-89
2022/08/14 12:18:35;;;;;;;3.83;2.40;;;;;;;;;;4404344;32;20239;-90
2022/08/14 12:21:29;;;;;;;3.62;2.53;;;;;;;;;;4404160;32;20202;-90
2022/08/14 12:24:09;;;;;;;2.95;2.05;;;;;;;;;;4396832;32;20226;-91
2022/08/14 12:26:36;;;;;;;2.53;1.95;;;;;;;;;;4403634;32;20224;-92
2022/08/14 12:29:10;;;;;;;4.18;2.40;;;;;;;;;;4403594;32;20245;-92
2022/08/14 12:31:37;;;;;;;2.20;1.92;;;;;;;;;;4404494;32;20221;-81
2022/08/14 12:34:04;;;;;;;3.05;2.70;;;;;;;;;;4403259;32;20606;-82
2022/08/14 12:36:31;;;;;;;2.28;1.80;;;;;;;;;;4402303;32;20221;-85
2022/08/14 12:38:58;;;;;;;2.40;2.20;;;;;;;;;;4402395;32;20367;-87
2022/08/14 12:41:30;;;;;;;5.20;1.92;;;;;;;;;;4401345;32;20391;-90
2022/08/14 12:43:58;;;;;;;2.62;2.17;;;;;;;;;;4402531;32;20221;-91
2022/08/14 12:46:36;;;;;;;5.25;2.33;;;;;;;;;;4403277;32;20232;-91
2022/08/14 12:49:12;;;;;;;2.45;2.12;;;;;;;;;;4402091;32;20701;-91
2022/08/14 12:51:38;;;;;;;3.33;1.98;;;;;;;;;;4403416;32;20300;-91
2022/08/14 12:54:16;;;;;;;2.25;1.98;;;;;;;;;;4402161;32;20229;-91
2022/08/14 12:56:42;;;;;;;3.28;2.37;;;;;;;;;;4403387;32;20209;-90
2022/08/14 12:59:08;;;;;;;2.03;1.73;;;;;;;;;;4402266;32;20736;-89
2022/08/14 13:01:35;;;;;;;2.75;2.25;;;;;;;;;;4401753;32;20246;-90
2022/08/14 13:04:13;;;;;;;3.75;3.03;;;;;;;;;;4403453;32;20255;-91
2022/08/14 13:06:43;;;;;;;3.08;2.58;;;;;;;;;;4403012;32;20232;-91
2022/08/14 13:09:10;;;;;;;5.65;3.10;;;;;;;;;;4403044;32;20275;-91
2022/08/14 13:11:51;;;;;;;3.67;3.03;;;;;;;;;;4402759;32;20603;-86
2022/08/14 13:14:24;;;;;;;5.93;2.92;;;;;;;;;;4402589;32;20259;-81
2022/08/14 13:16:54;;;;;;;2.70;2.15;;;;;;;;;;4401095;32;20305;-81
2022/08/14 13:19:20;;;;;;;2.03;1.83;;;;;;;;;;4402482;32;20670;-80
2022/08/14 13:21:48;;;;;;;3.80;1.90;;;;;;;;;;4401026;32;20244;-81
2022/08/14 13:24:14;;;;;;;2.17;1.92;;;;;;;;;;4400605;32;20677;-82
2022/08/14 13:26:57;;;;;;;2.45;1.75;;;;;;;;;;4402346;32;20202;-81
2022/08/14 13:29:27;;;;;;;4.03;2.15;;;;;;;;;;4402489;32;20217;-83
2022/08/14 13:31:54;;;;;;;2.90;2.05;;;;;;;;;;4402358;32;20218;-81
2022/08/14 13:34:21;;;;;;;4.15;2.70;;;;;;;;;;4401116;32;20257;-81
2022/08/14 13:36:48;;;;;;;4.37;2.33;;;;;;;;;;4401586;32;20205;-79
2022/08/14 13:39:18;;;;;;;10.60;1.70;;;;;;;;;;4401924;32;20249;-80
2022/08/14 13:41:46;;;;;;;3.15;2.10;;;;;;;;;;4401901;32;20197;-80
2022/08/14 13:44:14;;;;;;;2.92;1.85;;;;;;;;;;4401558;32;20324;-79
2022/08/14 13:46:43;;;;;;;2.83;1.77;;;;;;;;;;4401858;32;20576;-82
2022/08/14 13:49:10;;;;;;;2.70;2.20;;;;;;;;;;4401605;32;20290;-82
2022/08/14 13:51:50;;;;;;;3.12;2.10;;;;;;;;;;4401235;32;20244;-81
2022/08/14 13:54:19;;;;;;;2.62;2.10;;;;;;;;;;4401334;32;20556;-80
2022/08/14 13:56:46;;;;;;;3.65;2.12;;;;;;;;;;4401302;32;20607;-80
2022/08/14 13:59:12;;;;;;;6.03;1.98;;;;;;;;;;4401465;32;20260;-82
2022/08/14 14:01:40;;;;;;;6.60;2.20;;;;;;;;;;4388293;32;20328;-84
2022/08/14 14:04:11;;;;;;;3.15;1.62;;;;;;;;;;4400176;32;20307;-81
2022/08/14 14:06:38;;;;;;;2.65;2.05;;;;;;;;;;4399640;32;20237;-81
2022/08/14 14:09:07;;;;;;;3.50;1.65;;;;;;;;;;4400958;32;20229;-82
2022/08/14 14:11:35;;;;;;;7.25;1.85;;;;;;;;;;4400997;32;20226;-80
2022/08/14 14:14:00;;;;;;;5.28;1.85;;;;;;;;;;4401252;32;20679;-81
2022/08/14 14:16:26;;;;;;;3.03;1.87;;;;;;;;;;4401263;32;20236;-81
2022/08/14 14:18:55;;;;;;;2.70;2.12;;;;;;;;;;4401066;32;20221;-81
2022/08/14 14:21:25;;;;;;;2.90;1.90;;;;;;;;;;4401216;32;20287;-82
2022/08/14 14:23:51;;;;;;;4.28;1.73;;;;;;;;;;4400757;32;20665;-81
2022/08/14 14:26:19;;;;;;;2.50;2.08;;;;;;;;;;4401167;32;20259;-81
2022/08/14 14:28:56;;;;;;;3.40;1.95;;;;;;;;;;4401349;32;20289;-81
2022/08/14 14:31:24;;;;;;;5.07;2.35;;;;;;;;;;4401383;32;20291;-81
2022/08/14 14:33:54;;;;;;;2.62;1.70;;;;;;;;;;4400938;32;20217;-83
2022/08/14 14:36:25;;;;;;;3.60;1.70;;;;;;;;;;4401026;32;20201;-82
2022/08/14 14:38:54;;;;;;;2.70;1.65;;;;;;;;;;4401305;32;20225;-82
2022/08/14 14:41:25;;;;;;;19.05;1.48;;;;;;;;;;4400859;32;20663;-82
2022/08/14 14:43:52;;;;;;;1.90;1.30;;;;;;;;;;4401031;32;20788;-82
2022/08/14 14:46:19;;;;;;;3.37;1.37;;;;;;;;;;4401346;32;20341;-83
2022/08/14 14:48:45;;;;;;;4.97;1.85;;;;;;;;;;4401159;32;20364;-82
2022/08/14 14:51:16;;;;;;;2.17;1.62;;;;;;;;;;4399889;32;20602;-82
2022/08/14 14:53:42;;;;;;;5.12;1.75;;;;;;;;;;4401151;32;20291;-83
2022/08/14 14:56:09;;;;;;;5.25;2.67;;;;;;;;;;4400838;32;20300;-84
2022/08/14 14:58:36;;;;;;;6.72;2.30;;;;;;;;;;4401234;32;20587;-84
2022/08/14 15:01:04;;;;;;;4.60;1.73;;;;;;;;;;4399671;32;20591;-83
2022/08/14 15:03:29;;;;;;;4.85;1.98;;;;;;;;;;4401493;32;20334;-85
2022/08/14 15:05:56;;;;;;;2.70;1.50;;;;;;;;;;4399693;32;20225;-83
2022/08/14 15:08:22;;;;;;;3.17;1.62;;;;;;;;;;4397312;32;20229;-87